sensor_id;sensor_type;location;lat;lon;timestamp;P1;durP1;ratioP1;P2;durP2;ratioP2
51618;SDS011;38518;53.164;5.430;2022-07-01T00:01:57;3.67;;;1.40;;
51618;SDS011;38518;53.164;5.430;2022-07-01T00:04:23;3.88;;;1.40;;
51618;SDS011;38518;53.164;5.430;2022-07-01T00:06:53;2.33;;;1.15;;
51618;SDS011;38518;53.164;5.430;2022-07-01T00:09:19;5.70;;;1.20;;
51618;SDS011;38518;53.164;5.430;2022-07-01T00:11:45;1.60;;;1.27;;
51618;SDS011;38518;53.164;5.430;2022-07-01T00:14:11;3.47;;;1.15;;
51618;SDS011;38518;53.164;5.430;2022-07-01T00:16:37;1.92;;;1.08;;
51618;SDS011;38518;53.164;5.430;2022-07-01T00:19:03;2.75;;;1.20;;
51618;SDS011;38518;53.164;5.430;2022-07-01T00:21:28;1.85;;;1.10;;
51618;SDS011;38518;53.164;5.430;2022-07-01T00:23:54;1.35;;;1.17;;
51618;SDS011;38518;53.164;5.430;2022-07-01T00:26:23;1.80;;;1.02;;
51618;SDS011;38518;53.164;5.430;2022-07-01T00:28:49;2.97;;;1.10;;
51618;SDS011;38518;53.164;5.430;2022-07-01T00:31:15;2.58;;;1.10;;
51618;SDS011;38518;53.164;5.430;2022-07-01T00:33:41;2.15;;;1.10;;
51618;SDS011;38518;53.164;5.430;2022-07-01T00:36:06;1.83;;;1.10;;
51618;SDS011;38518;53.164;5.430;2022-07-01T00:38:32;2.50;;;1.10;;
51618;SDS011;38518;53.164;5.430;2022-07-01T00:40:58;1.77;;;0.90;;
51618;SDS011;38518;53.164;5.430;2022-07-01T00:43:23;1.88;;;0.90;;
51618;SDS011;38518;53.164;5.430;2022-07-01T00:45:50;2.13;;;1.30;;
51618;SDS011;38518;53.164;5.430;2022-07-01T00:48:17;1.50;;;0.93;;
51618;SDS011;38518;53.164;5.430;2022-07-01T00:50:45;2.55;;;0.90;;
51618;SDS011;38518;53.164;5.430;2022-07-01T00:53:11;2.22;;;1.08;;
51618;SDS011;38518;53.164;5.430;2022-07-01T00:55:38;3.50;;;1.08;;
51618;SDS011;38518;53.164;5.430;2022-07-01T00:58:05;1.98;;;0.95;;
51618;SDS011;38518;53.164;5.430;2022-07-01T01:00:32;2.88;;;0.90;;
51618;SDS011;38518;53.164;5.430;2022-07-01T01:02:58;2.22;;;1.05;;
51618;SDS011;38518;53.164;5.430;2022-07-01T01:05:24;1.85;;;0.93;;
51618;SDS011;38518;53.164;5.430;2022-07-01T01:07:50;1.58;;;1.00;;
51618;SDS011;38518;53.164;5.430;2022-07-01T01:10:17;2.35;;;1.00;;
51618;SDS011;38518;53.164;5.430;2022-07-01T01:12:43;2.47;;;0.90;;
51618;SDS011;38518;53.164;5.430;2022-07-01T01:15:09;1.40;;;0.90;;
51618;SDS011;38518;53.164;5.430;2022-07-01T01:17:35;2.83;;;1.00;;
51618;SDS011;38518;53.164;5.430;2022-07-01T01:20:02;1.17;;;0.73;;
51618;SDS011;38518;53.164;5.430;2022-07-01T01:22:29;1.13;;;0.80;;
51618;SDS011;38518;53.164;5.430;2022-07-01T01:24:54;1.85;;;1.02;;
51618;SDS011;38518;53.164;5.430;2022-07-01T01:27:23;2.05;;;0.80;;
51618;SDS011;38518;53.164;5.430;2022-07-01T01:29:49;2.08;;;0.90;;
51618;SDS011;38518;53.164;5.430;2022-07-01T01:32:14;1.40;;;0.88;;
51618;SDS011;38518;53.164;5.430;2022-07-01T01:34:40;2.55;;;1.17;;
51618;SDS011;38518;53.164;5.430;2022-07-01T01:37:06;1.55;;;0.90;;
51618;SDS011;38518;53.164;5.430;2022-07-01T01:39:33;1.17;;;0.70;;
51618;SDS011;38518;53.164;5.430;2022-07-01T01:42:01;1.75;;;0.90;;
51618;SDS011;38518;53.164;5.430;2022-07-01T01:44:28;1.83;;;0.90;;
51618;SDS011;38518;53.164;5.430;2022-07-01T01:46:54;1.80;;;1.00;;
51618;SDS011;38518;53.164;5.430;2022-07-01T01:49:19;2.40;;;1.10;;
51618;SDS011;38518;53.164;5.430;2022-07-01T01:51:45;2.67;;;1.10;;
51618;SDS011;38518;53.164;5.430;2022-07-01T01:54:11;4.18;;;1.10;;
51618;SDS011;38518;53.164;5.430;2022-07-01T01:56:36;3.22;;;1.10;;
51618;SDS011;38518;53.164;5.430;2022-07-01T01:59:02;3.10;;;1.20;;
51618;SDS011;38518;53.164;5.430;2022-07-01T02:01:29;2.80;;;1.42;;
51618;SDS011;38518;53.164;5.430;2022-07-01T02:03:55;2.10;;;1.27;;
51618;SDS011;38518;53.164;5.430;2022-07-01T02:06:21;2.60;;;1.05;;
51618;SDS011;38518;53.164;5.430;2022-07-01T02:08:47;2.72;;;1.30;;
51618;SDS011;38518;53.164;5.430;2022-07-01T02:11:13;2.75;;;1.30;;
51618;SDS011;38518;53.164;5.430;2022-07-01T02:13:39;3.33;;;1.40;;
51618;SDS011;38518;53.164;5.430;2022-07-01T02:16:05;4.47;;;1.20;;
51618;SDS011;38518;53.164;5.430;2022-07-01T02:18:31;3.17;;;1.40;;
51618;SDS011;38518;53.164;5.430;2022-07-01T02:20:58;2.83;;;1.30;;
51618;SDS011;38518;53.164;5.430;2022-07-01T02:23:24;4.50;;;1.20;;
51618;SDS011;38518;53.164;5.430;2022-07-01T02:25:50;4.13;;;1.40;;
51618;SDS011;38518;53.164;5.430;2022-07-01T02:28:17;4.75;;;1.80;;
51618;SDS011;38518;53.164;5.430;2022-07-01T02:30:42;4.80;;;1.67;;
51618;SDS011;38518;53.164;5.430;2022-07-01T02:33:08;6.25;;;1.70;;
51618;SDS011;38518;53.164;5.430;2022-07-01T02:35:37;2.70;;;1.10;;
51618;SDS011;38518;53.164;5.430;2022-07-01T02:38:04;3.15;;;1.15;;
51618;SDS011;38518;53.164;5.430;2022-07-01T02:40:30;4.93;;;1.70;;
51618;SDS011;38518;53.164;5.430;2022-07-01T02:42:58;4.78;;;1.50;;
51618;SDS011;38518;53.164;5.430;2022-07-01T02:45:23;3.45;;;1.38;;
51618;SDS011;38518;53.164;5.430;2022-07-01T02:47:52;4.47;;;1.40;;
51618;SDS011;38518;53.164;5.430;2022-07-01T02:50:18;6.35;;;1.70;;
51618;SDS011;38518;53.164;5.430;2022-07-01T02:52:44;4.50;;;1.80;;
51618;SDS011;38518;53.164;5.430;2022-07-01T02:55:11;5.80;;;1.65;;
51618;SDS011;38518;53.164;5.430;2022-07-01T02:57:42;3.15;;;1.30;;
51618;SDS011;38518;53.164;5.430;2022-07-01T03:00:09;4.13;;;1.70;;
51618;SDS011;38518;53.164;5.430;2022-07-01T03:02:37;3.28;;;1.50;;
51618;SDS011;38518;53.164;5.430;2022-07-01T03:05:04;3.72;;;1.45;;
51618;SDS011;38518;53.164;5.430;2022-07-01T03:07:30;4.85;;;1.52;;
51618;SDS011;38518;53.164;5.430;2022-07-01T03:09:56;4.82;;;1.60;;
51618;SDS011;38518;53.164;5.430;2022-07-01T03:12:22;4.32;;;1.42;;
51618;SDS011;38518;53.164;5.430;2022-07-01T03:14:53;3.90;;;1.40;;
51618;SDS011;38518;53.164;5.430;2022-07-01T03:17:20;5.65;;;1.60;;
51618;SDS011;38518;53.164;5.430;2022-07-01T03:19:46;4.45;;;1.63;;
51618;SDS011;38518;53.164;5.430;2022-07-01T03:22:12;4.82;;;1.60;;
51618;SDS011;38518;53.164;5.430;2022-07-01T03:24:38;4.82;;;1.50;;
51618;SDS011;38518;53.164;5.430;2022-07-01T03:27:04;6.60;;;1.70;;
51618;SDS011;38518;53.164;5.430;2022-07-01T03:29:30;4.60;;;1.67;;
51618;SDS011;38518;53.164;5.430;2022-07-01T03:31:55;4.25;;;1.50;;
51618;SDS011;38518;53.164;5.430;2022-07-01T03:34:21;4.15;;;1.58;;
51618;SDS011;38518;53.164;5.430;2022-07-01T03:36:47;4.50;;;1.20;;
51618;SDS011;38518;53.164;5.430;2022-07-01T03:39:13;5.68;;;1.40;;
51618;SDS011;38518;53.164;5.430;2022-07-01T03:41:38;6.78;;;1.77;;
51618;SDS011;38518;53.164;5.430;2022-07-01T03:44:04;6.00;;;1.75;;
51618;SDS011;38518;53.164;5.430;2022-07-01T03:46:33;4.03;;;1.50;;
51618;SDS011;38518;53.164;5.430;2022-07-01T03:49:00;6.93;;;2.28;;
51618;SDS011;38518;53.164;5.430;2022-07-01T03:51:27;5.88;;;2.22;;
51618;SDS011;38518;53.164;5.430;2022-07-01T03:53:53;5.03;;;1.75;;
51618;SDS011;38518;53.164;5.430;2022-07-01T03:56:37;3.70;;;1.55;;
51618;SDS011;38518;53.164;5.430;2022-07-01T03:59:03;5.60;;;2.05;;
51618;SDS011;38518;53.164;5.430;2022-07-01T04:01:29;5.85;;;1.95;;
51618;SDS011;38518;53.164;5.430;2022-07-01T04:03:54;4.68;;;1.80;;
51618;SDS011;38518;53.164;5.430;2022-07-01T04:06:23;4.47;;;1.90;;
51618;SDS011;38518;53.164;5.430;2022-07-01T04:08:49;5.07;;;1.70;;
51618;SDS011;38518;53.164;5.430;2022-07-01T04:11:15;4.93;;;1.85;;
51618;SDS011;38518;53.164;5.430;2022-07-01T04:13:41;7.25;;;2.90;;
51618;SDS011;38518;53.164;5.430;2022-07-01T04:16:15;6.72;;;2.35;;
51618;SDS011;38518;53.164;5.430;2022-07-01T04:18:42;6.65;;;1.85;;
51618;SDS011;38518;53.164;5.430;2022-07-01T04:21:07;7.25;;;1.92;;
51618;SDS011;38518;53.164;5.430;2022-07-01T04:23:52;5.70;;;1.90;;
51618;SDS011;38518;53.164;5.430;2022-07-01T04:26:18;5.72;;;1.88;;
51618;SDS011;38518;53.164;5.430;2022-07-01T04:28:43;7.38;;;1.73;;
51618;SDS011;38518;53.164;5.430;2022-07-01T04:31:09;6.22;;;2.00;;
51618;SDS011;38518;53.164;5.430;2022-07-01T04:33:35;6.72;;;2.22;;
51618;SDS011;38518;53.164;5.430;2022-07-01T04:36:01;5.40;;;2.17;;
51618;SDS011;38518;53.164;5.430;2022-07-01T04:38:26;5.15;;;1.90;;
51618;SDS011;38518;53.164;5.430;2022-07-01T04:40:53;5.53;;;2.25;;
51618;SDS011;38518;53.164;5.430;2022-07-01T04:43:37;7.37;;;2.27;;
51618;SDS011;38518;53.164;5.430;2022-07-01T04:46:03;6.22;;;1.90;;
51618;SDS011;38518;53.164;5.430;2022-07-01T04:48:29;5.82;;;2.15;;
51618;SDS011;38518;53.164;5.430;2022-07-01T04:50:54;6.40;;;2.30;;
51618;SDS011;38518;53.164;5.430;2022-07-01T04:53:20;6.90;;;2.20;;
51618;SDS011;38518;53.164;5.430;2022-07-01T04:55:46;8.18;;;2.78;;
51618;SDS011;38518;53.164;5.430;2022-07-01T04:58:12;8.95;;;2.55;;
51618;SDS011;38518;53.164;5.430;2022-07-01T05:00:38;8.60;;;2.55;;
51618;SDS011;38518;53.164;5.430;2022-07-01T05:03:04;8.35;;;2.58;;
51618;SDS011;38518;53.164;5.430;2022-07-01T05:05:29;6.97;;;2.80;;
51618;SDS011;38518;53.164;5.430;2022-07-01T05:07:55;11.52;;;3.10;;
51618;SDS011;38518;53.164;5.430;2022-07-01T05:10:21;6.82;;;2.45;;
51618;SDS011;38518;53.164;5.430;2022-07-01T05:12:47;9.25;;;2.63;;
51618;SDS011;38518;53.164;5.430;2022-07-01T05:15:13;10.75;;;2.95;;
51618;SDS011;38518;53.164;5.430;2022-07-01T05:17:39;9.55;;;2.58;;
51618;SDS011;38518;53.164;5.430;2022-07-01T05:20:23;8.57;;;2.60;;
51618;SDS011;38518;53.164;5.430;2022-07-01T05:23:07;7.10;;;2.90;;
51618;SDS011;38518;53.164;5.430;2022-07-01T05:25:33;10.30;;;2.47;;
51618;SDS011;38518;53.164;5.430;2022-07-01T05:27:59;7.82;;;2.58;;
51618;SDS011;38518;53.164;5.430;2022-07-01T05:30:24;6.55;;;2.50;;
51618;SDS011;38518;53.164;5.430;2022-07-01T05:32:50;7.53;;;2.60;;
51618;SDS011;38518;53.164;5.430;2022-07-01T05:35:16;10.05;;;3.17;;
51618;SDS011;38518;53.164;5.430;2022-07-01T05:37:41;8.68;;;2.60;;
51618;SDS011;38518;53.164;5.430;2022-07-01T05:40:08;8.05;;;2.75;;
51618;SDS011;38518;53.164;5.430;2022-07-01T05:42:34;11.23;;;2.90;;
51618;SDS011;38518;53.164;5.430;2022-07-01T05:45:00;8.80;;;2.70;;
51618;SDS011;38518;53.164;5.430;2022-07-01T05:47:25;7.00;;;2.38;;
51618;SDS011;38518;53.164;5.430;2022-07-01T05:49:51;8.35;;;2.60;;
51618;SDS011;38518;53.164;5.430;2022-07-01T05:52:16;7.40;;;2.33;;
51618;SDS011;38518;53.164;5.430;2022-07-01T05:54:42;8.32;;;2.15;;
51618;SDS011;38518;53.164;5.430;2022-07-01T05:57:08;7.15;;;2.50;;
51618;SDS011;38518;53.164;5.430;2022-07-01T05:59:35;7.78;;;2.67;;
51618;SDS011;38518;53.164;5.430;2022-07-01T06:02:00;7.75;;;2.67;;
51618;SDS011;38518;53.164;5.430;2022-07-01T06:04:26;10.82;;;3.08;;
51618;SDS011;38518;53.164;5.430;2022-07-01T06:06:52;7.88;;;2.63;;
51618;SDS011;38518;53.164;5.430;2022-07-01T06:09:18;8.55;;;2.80;;
51618;SDS011;38518;53.164;5.430;2022-07-01T06:11:44;7.07;;;2.33;;
51618;SDS011;38518;53.164;5.430;2022-07-01T06:14:11;9.80;;;3.10;;
51618;SDS011;38518;53.164;5.430;2022-07-01T06:16:37;8.25;;;2.42;;
51618;SDS011;38518;53.164;5.430;2022-07-01T06:19:03;10.02;;;2.95;;
51618;SDS011;38518;53.164;5.430;2022-07-01T06:21:31;6.10;;;2.35;;
51618;SDS011;38518;53.164;5.430;2022-07-01T06:23:57;7.43;;;2.55;;
51618;SDS011;38518;53.164;5.430;2022-07-01T06:26:23;5.63;;;2.03;;
51618;SDS011;38518;53.164;5.430;2022-07-01T06:28:49;11.35;;;2.33;;
51618;SDS011;38518;53.164;5.430;2022-07-01T06:31:15;7.32;;;2.30;;
51618;SDS011;38518;53.164;5.430;2022-07-01T06:33:41;7.78;;;2.28;;
51618;SDS011;38518;53.164;5.430;2022-07-01T06:36:07;6.25;;;2.25;;
51618;SDS011;38518;53.164;5.430;2022-07-01T06:38:32;6.70;;;2.10;;
51618;SDS011;38518;53.164;5.430;2022-07-01T06:40:58;7.18;;;2.20;;
51618;SDS011;38518;53.164;5.430;2022-07-01T06:43:42;6.80;;;2.10;;
51618;SDS011;38518;53.164;5.430;2022-07-01T06:46:08;7.78;;;2.50;;
51618;SDS011;38518;53.164;5.430;2022-07-01T06:48:34;9.35;;;2.05;;
51618;SDS011;38518;53.164;5.430;2022-07-01T06:51:01;6.72;;;2.38;;
51618;SDS011;38518;53.164;5.430;2022-07-01T06:53:30;7.15;;;2.53;;
51618;SDS011;38518;53.164;5.430;2022-07-01T06:55:56;6.25;;;1.83;;
51618;SDS011;38518;53.164;5.430;2022-07-01T06:58:22;6.85;;;1.95;;
51618;SDS011;38518;53.164;5.430;2022-07-01T07:00:48;6.78;;;2.15;;
51618;SDS011;38518;53.164;5.430;2022-07-01T07:03:13;5.15;;;1.75;;
51618;SDS011;38518;53.164;5.430;2022-07-01T07:05:39;8.82;;;2.30;;
51618;SDS011;38518;53.164;5.430;2022-07-01T07:08:05;6.00;;;2.30;;
51618;SDS011;38518;53.164;5.430;2022-07-01T07:10:31;6.05;;;2.00;;
51618;SDS011;38518;53.164;5.430;2022-07-01T07:12:56;5.75;;;2.20;;
51618;SDS011;38518;53.164;5.430;2022-07-01T07:15:22;8.20;;;2.50;;
51618;SDS011;38518;53.164;5.430;2022-07-01T07:17:48;4.47;;;1.98;;
51618;SDS011;38518;53.164;5.430;2022-07-01T07:20:13;8.68;;;2.35;;
51618;SDS011;38518;53.164;5.430;2022-07-01T07:22:39;6.60;;;2.22;;
51618;SDS011;38518;53.164;5.430;2022-07-01T07:25:05;7.07;;;2.33;;
51618;SDS011;38518;53.164;5.430;2022-07-01T07:27:31;7.20;;;2.50;;
51618;SDS011;38518;53.164;5.430;2022-07-01T07:29:57;9.15;;;2.65;;
51618;SDS011;38518;53.164;5.430;2022-07-01T07:32:22;6.30;;;2.15;;
51618;SDS011;38518;53.164;5.430;2022-07-01T07:34:48;7.70;;;1.75;;
51618;SDS011;38518;53.164;5.430;2022-07-01T07:37:14;7.25;;;1.85;;
51618;SDS011;38518;53.164;5.430;2022-07-01T07:39:39;5.82;;;1.65;;
51618;SDS011;38518;53.164;5.430;2022-07-01T07:42:05;8.82;;;2.15;;
51618;SDS011;38518;53.164;5.430;2022-07-01T07:44:31;4.18;;;1.50;;
51618;SDS011;38518;53.164;5.430;2022-07-01T07:46:57;5.68;;;1.50;;
51618;SDS011;38518;53.164;5.430;2022-07-01T07:49:23;5.88;;;1.60;;
51618;SDS011;38518;53.164;5.430;2022-07-01T07:51:49;5.03;;;1.40;;
51618;SDS011;38518;53.164;5.430;2022-07-01T07:54:15;5.43;;;1.63;;
51618;SDS011;38518;53.164;5.430;2022-07-01T07:56:41;7.13;;;1.88;;
51618;SDS011;38518;53.164;5.430;2022-07-01T07:59:07;7.50;;;1.85;;
51618;SDS011;38518;53.164;5.430;2022-07-01T08:01:33;3.47;;;1.50;;
51618;SDS011;38518;53.164;5.430;2022-07-01T08:03:59;3.65;;;1.45;;
51618;SDS011;38518;53.164;5.430;2022-07-01T08:06:27;4.25;;;1.27;;
51618;SDS011;38518;53.164;5.430;2022-07-01T08:08:54;4.03;;;1.52;;
51618;SDS011;38518;53.164;5.430;2022-07-01T08:11:20;3.97;;;1.27;;
51618;SDS011;38518;53.164;5.430;2022-07-01T08:13:45;4.22;;;1.70;;
51618;SDS011;38518;53.164;5.430;2022-07-01T08:16:11;3.30;;;1.50;;
51618;SDS011;38518;53.164;5.430;2022-07-01T08:18:37;4.05;;;1.10;;
51618;SDS011;38518;53.164;5.430;2022-07-01T08:21:03;5.95;;;1.50;;
51618;SDS011;38518;53.164;5.430;2022-07-01T08:23:29;4.15;;;1.20;;
51618;SDS011;38518;53.164;5.430;2022-07-01T08:25:55;2.67;;;1.20;;
51618;SDS011;38518;53.164;5.430;2022-07-01T08:28:21;5.97;;;1.55;;
51618;SDS011;38518;53.164;5.430;2022-07-01T08:30:46;1.98;;;1.05;;
51618;SDS011;38518;53.164;5.430;2022-07-01T08:33:12;3.58;;;1.20;;
51618;SDS011;38518;53.164;5.430;2022-07-01T08:35:38;4.75;;;1.20;;
51618;SDS011;38518;53.164;5.430;2022-07-01T08:38:05;2.97;;;1.40;;
51618;SDS011;38518;53.164;5.430;2022-07-01T08:40:31;2.22;;;1.27;;
51618;SDS011;38518;53.164;5.430;2022-07-01T08:42:58;5.05;;;1.40;;
51618;SDS011;38518;53.164;5.430;2022-07-01T08:45:26;2.22;;;1.05;;
51618;SDS011;38518;53.164;5.430;2022-07-01T08:47:54;2.47;;;1.10;;
51618;SDS011;38518;53.164;5.430;2022-07-01T08:50:22;2.50;;;1.20;;
51618;SDS011;38518;53.164;5.430;2022-07-01T08:52:50;2.28;;;1.10;;
51618;SDS011;38518;53.164;5.430;2022-07-01T08:55:16;6.72;;;1.63;;
51618;SDS011;38518;53.164;5.430;2022-07-01T08:57:42;3.92;;;1.25;;
51618;SDS011;38518;53.164;5.430;2022-07-01T09:00:08;2.10;;;1.00;;
51618;SDS011;38518;53.164;5.430;2022-07-01T09:02:56;3.78;;;1.20;;
51618;SDS011;38518;53.164;5.430;2022-07-01T09:05:21;2.20;;;1.00;;
51618;SDS011;38518;53.164;5.430;2022-07-01T09:07:48;4.90;;;1.20;;
51618;SDS011;38518;53.164;5.430;2022-07-01T09:10:15;3.78;;;1.13;;
51618;SDS011;38518;53.164;5.430;2022-07-01T09:12:43;2.88;;;1.25;;
51618;SDS011;38518;53.164;5.430;2022-07-01T09:15:23;3.47;;;1.40;;
51618;SDS011;38518;53.164;5.430;2022-07-01T09:17:54;4.30;;;1.30;;
51618;SDS011;38518;53.164;5.430;2022-07-01T09:20:25;3.17;;;1.10;;
51618;SDS011;38518;53.164;5.430;2022-07-01T09:22:59;2.97;;;1.10;;
51618;SDS011;38518;53.164;5.430;2022-07-01T09:25:30;2.95;;;1.42;;
51618;SDS011;38518;53.164;5.430;2022-07-01T09:28:05;2.92;;;1.40;;
51618;SDS011;38518;53.164;5.430;2022-07-01T09:30:43;5.57;;;1.60;;
51618;SDS011;38518;53.164;5.430;2022-07-01T09:33:12;3.10;;;1.42;;
51618;SDS011;38518;53.164;5.430;2022-07-01T09:35:40;4.72;;;1.60;;
51618;SDS011;38518;53.164;5.430;2022-07-01T09:38:07;3.78;;;1.45;;
51618;SDS011;38518;53.164;5.430;2022-07-01T09:40:46;3.42;;;1.70;;
51618;SDS011;38518;53.164;5.430;2022-07-01T09:43:14;4.18;;;1.67;;
51618;SDS011;38518;53.164;5.430;2022-07-01T09:46:04;5.05;;;1.40;;
51618;SDS011;38518;53.164;5.430;2022-07-01T09:50:58;4.93;;;1.65;;
51618;SDS011;38518;53.164;5.430;2022-07-01T09:53:28;4.47;;;1.55;;
51618;SDS011;38518;53.164;5.430;2022-07-01T09:55:54;4.88;;;1.50;;
51618;SDS011;38518;53.164;5.430;2022-07-01T09:58:19;4.22;;;1.60;;
51618;SDS011;38518;53.164;5.430;2022-07-01T10:00:45;3.63;;;1.15;;
51618;SDS011;38518;53.164;5.430;2022-07-01T10:03:12;3.35;;;1.40;;
51618;SDS011;38518;53.164;5.430;2022-07-01T10:05:40;4.50;;;1.40;;
51618;SDS011;38518;53.164;5.430;2022-07-01T10:13:44;3.50;;;1.33;;
51618;SDS011;38518;53.164;5.430;2022-07-01T10:16:11;3.78;;;1.30;;
51618;SDS011;38518;53.164;5.430;2022-07-01T10:18:37;3.10;;;1.27;;
51618;SDS011;38518;53.164;5.430;2022-07-01T10:21:03;2.92;;;1.15;;
51618;SDS011;38518;53.164;5.430;2022-07-01T10:23:38;3.63;;;1.40;;
51618;SDS011;38518;53.164;5.430;2022-07-01T10:26:05;3.20;;;1.10;;
51618;SDS011;38518;53.164;5.430;2022-07-01T10:31:14;3.47;;;1.40;;
51618;SDS011;38518;53.164;5.430;2022-07-01T10:41:26;2.60;;;1.23;;
51618;SDS011;38518;53.164;5.430;2022-07-01T10:43:54;2.50;;;1.10;;
51618;SDS011;38518;53.164;5.430;2022-07-01T10:49:11;5.25;;;1.10;;
51618;SDS011;38518;53.164;5.430;2022-07-01T10:52:03;2.83;;;1.00;;
51618;SDS011;38518;53.164;5.430;2022-07-01T10:59:49;2.35;;;1.10;;
51618;SDS011;38518;53.164;5.430;2022-07-01T11:04:43;2.97;;;1.20;;
51618;SDS011;38518;53.164;5.430;2022-07-01T11:07:10;4.07;;;1.20;;
51618;SDS011;38518;53.164;5.430;2022-07-01T11:09:36;2.40;;;1.20;;
51618;SDS011;38518;53.164;5.430;2022-07-01T11:12:02;2.60;;;1.00;;
51618;SDS011;38518;53.164;5.430;2022-07-01T11:14:31;4.22;;;1.00;;
51618;SDS011;38518;53.164;5.430;2022-07-01T11:17:03;2.83;;;1.10;;
51618;SDS011;38518;53.164;5.430;2022-07-01T11:19:29;4.35;;;1.05;;
51618;SDS011;38518;53.164;5.430;2022-07-01T11:21:55;3.67;;;1.23;;
51618;SDS011;38518;53.164;5.430;2022-07-01T11:24:22;3.22;;;1.10;;
51618;SDS011;38518;53.164;5.430;2022-07-01T11:26:48;2.65;;;1.10;;
51618;SDS011;38518;53.164;5.430;2022-07-01T11:29:23;5.50;;;1.20;;
51618;SDS011;38518;53.164;5.430;2022-07-01T11:31:50;3.30;;;1.20;;
51618;SDS011;38518;53.164;5.430;2022-07-01T11:34:17;2.83;;;1.13;;
51618;SDS011;38518;53.164;5.430;2022-07-01T11:36:44;3.17;;;1.30;;
51618;SDS011;38518;53.164;5.430;2022-07-01T11:39:30;4.35;;;1.52;;
51618;SDS011;38518;53.164;5.430;2022-07-01T11:42:04;4.68;;;1.40;;
51618;SDS011;38518;53.164;5.430;2022-07-01T11:44:33;5.65;;;1.50;;
51618;SDS011;38518;53.164;5.430;2022-07-01T11:47:02;3.20;;;1.20;;
51618;SDS011;38518;53.164;5.430;2022-07-01T11:49:43;3.72;;;1.65;;
51618;SDS011;38518;53.164;5.430;2022-07-01T11:52:11;5.88;;;1.45;;
51618;SDS011;38518;53.164;5.430;2022-07-01T11:54:41;5.68;;;1.67;;
51618;SDS011;38518;53.164;5.430;2022-07-01T11:57:10;5.32;;;1.40;;
51618;SDS011;38518;53.164;5.430;2022-07-01T11:59:37;4.47;;;1.30;;
51618;SDS011;38518;53.164;5.430;2022-07-01T12:02:04;3.08;;;1.05;;
51618;SDS011;38518;53.164;5.430;2022-07-01T12:04:31;5.57;;;1.25;;
51618;SDS011;38518;53.164;5.430;2022-07-01T12:06:57;2.80;;;1.17;;
51618;SDS011;38518;53.164;5.430;2022-07-01T12:09:24;3.40;;;1.20;;
51618;SDS011;38518;53.164;5.430;2022-07-01T12:11:50;4.13;;;1.58;;
51618;SDS011;38518;53.164;5.430;2022-07-01T12:14:24;3.50;;;1.45;;
51618;SDS011;38518;53.164;5.430;2022-07-01T12:16:59;3.33;;;1.23;;
51618;SDS011;38518;53.164;5.430;2022-07-01T12:19:27;7.30;;;1.73;;
51618;SDS011;38518;53.164;5.430;2022-07-01T12:22:04;5.43;;;2.17;;
51618;SDS011;38518;53.164;5.430;2022-07-01T12:24:34;4.65;;;1.50;;
51618;SDS011;38518;53.164;5.430;2022-07-01T12:29:50;3.33;;;1.30;;
51618;SDS011;38518;53.164;5.430;2022-07-01T12:32:17;3.42;;;1.50;;
51618;SDS011;38518;53.164;5.430;2022-07-01T12:37:36;4.10;;;1.50;;
51618;SDS011;38518;53.164;5.430;2022-07-01T12:40:03;5.13;;;1.50;;
51618;SDS011;38518;53.164;5.430;2022-07-01T12:42:35;3.95;;;1.30;;
51618;SDS011;38518;53.164;5.430;2022-07-01T12:45:05;4.70;;;1.30;;
51618;SDS011;38518;53.164;5.430;2022-07-01T12:47:33;6.40;;;1.90;;
51618;SDS011;38518;53.164;5.430;2022-07-01T12:50:09;5.07;;;1.35;;
51618;SDS011;38518;53.164;5.430;2022-07-01T12:52:36;5.25;;;1.58;;
51618;SDS011;38518;53.164;5.430;2022-07-01T12:55:16;4.80;;;1.60;;
51618;SDS011;38518;53.164;5.430;2022-07-01T12:57:45;4.70;;;1.80;;
51618;SDS011;38518;53.164;5.430;2022-07-01T13:00:15;5.50;;;1.60;;
51618;SDS011;38518;53.164;5.430;2022-07-01T13:02:42;4.90;;;1.83;;
51618;SDS011;38518;53.164;5.430;2022-07-01T13:05:08;4.38;;;1.50;;
51618;SDS011;38518;53.164;5.430;2022-07-01T13:07:34;3.72;;;1.50;;
51618;SDS011;38518;53.164;5.430;2022-07-01T13:10:00;3.95;;;1.40;;
51618;SDS011;38518;53.164;5.430;2022-07-01T13:12:26;3.53;;;1.40;;
51618;SDS011;38518;53.164;5.430;2022-07-01T13:14:51;6.00;;;1.63;;
51618;SDS011;38518;53.164;5.430;2022-07-01T13:17:17;7.10;;;1.58;;
51618;SDS011;38518;53.164;5.430;2022-07-01T13:19:43;2.95;;;1.25;;
51618;SDS011;38518;53.164;5.430;2022-07-01T13:22:08;2.42;;;1.10;;
51618;SDS011;38518;53.164;5.430;2022-07-01T13:24:34;4.15;;;1.38;;
51618;SDS011;38518;53.164;5.430;2022-07-01T13:27:00;4.13;;;1.30;;
51618;SDS011;38518;53.164;5.430;2022-07-01T13:29:26;4.30;;;1.30;;
51618;SDS011;38518;53.164;5.430;2022-07-01T13:31:51;4.07;;;1.50;;
51618;SDS011;38518;53.164;5.430;2022-07-01T13:34:17;4.15;;;1.23;;
51618;SDS011;38518;53.164;5.430;2022-07-01T13:36:43;3.85;;;1.25;;
51618;SDS011;38518;53.164;5.430;2022-07-01T13:39:08;3.47;;;1.17;;
51618;SDS011;38518;53.164;5.430;2022-07-01T13:41:34;4.45;;;1.23;;
51618;SDS011;38518;53.164;5.430;2022-07-01T13:44:00;3.08;;;1.20;;
51618;SDS011;38518;53.164;5.430;2022-07-01T13:46:27;5.45;;;1.60;;
51618;SDS011;38518;53.164;5.430;2022-07-01T13:48:52;3.33;;;1.30;;
51618;SDS011;38518;53.164;5.430;2022-07-01T13:51:18;4.57;;;1.38;;
51618;SDS011;38518;53.164;5.430;2022-07-01T13:53:44;3.92;;;1.40;;
51618;SDS011;38518;53.164;5.430;2022-07-01T13:56:09;3.25;;;1.38;;
51618;SDS011;38518;53.164;5.430;2022-07-01T13:58:35;3.40;;;1.23;;
51618;SDS011;38518;53.164;5.430;2022-07-01T14:01:01;2.03;;;1.00;;
51618;SDS011;38518;53.164;5.430;2022-07-01T14:03:27;6.18;;;1.35;;
51618;SDS011;38518;53.164;5.430;2022-07-01T14:05:52;4.70;;;1.33;;
51618;SDS011;38518;53.164;5.430;2022-07-01T14:08:18;5.10;;;1.50;;
51618;SDS011;38518;53.164;5.430;2022-07-01T14:10:44;4.05;;;1.33;;
51618;SDS011;38518;53.164;5.430;2022-07-01T14:13:12;5.72;;;1.77;;
51618;SDS011;38518;53.164;5.430;2022-07-01T14:15:37;4.20;;;1.30;;
51618;SDS011;38518;53.164;5.430;2022-07-01T14:18:04;4.18;;;1.20;;
51618;SDS011;38518;53.164;5.430;2022-07-01T14:20:30;4.05;;;1.10;;
51618;SDS011;38518;53.164;5.430;2022-07-01T14:22:56;4.13;;;1.27;;
51618;SDS011;38518;53.164;5.430;2022-07-01T14:25:22;3.55;;;1.13;;
51618;SDS011;38518;53.164;5.430;2022-07-01T14:27:48;3.22;;;1.15;;
51618;SDS011;38518;53.164;5.430;2022-07-01T14:30:14;2.72;;;1.17;;
51618;SDS011;38518;53.164;5.430;2022-07-01T14:32:41;2.22;;;1.00;;
51618;SDS011;38518;53.164;5.430;2022-07-01T14:35:07;3.75;;;1.15;;
51618;SDS011;38518;53.164;5.430;2022-07-01T14:37:34;2.67;;;1.13;;
51618;SDS011;38518;53.164;5.430;2022-07-01T14:40:02;2.45;;;1.10;;
51618;SDS011;38518;53.164;5.430;2022-07-01T14:42:28;3.30;;;1.33;;
51618;SDS011;38518;53.164;5.430;2022-07-01T14:44:55;3.30;;;1.10;;
51618;SDS011;38518;53.164;5.430;2022-07-01T14:47:21;4.93;;;1.30;;
51618;SDS011;38518;53.164;5.430;2022-07-01T14:49:48;4.15;;;1.50;;
51618;SDS011;38518;53.164;5.430;2022-07-01T14:52:15;4.63;;;1.40;;
51618;SDS011;38518;53.164;5.430;2022-07-01T14:54:42;2.92;;;1.20;;
51618;SDS011;38518;53.164;5.430;2022-07-01T14:57:08;3.60;;;1.15;;
51618;SDS011;38518;53.164;5.430;2022-07-01T14:59:34;3.03;;;1.27;;
51618;SDS011;38518;53.164;5.430;2022-07-01T15:02:00;3.42;;;1.30;;
51618;SDS011;38518;53.164;5.430;2022-07-01T15:04:29;4.55;;;1.60;;
51618;SDS011;38518;53.164;5.430;2022-07-01T15:06:55;3.88;;;1.30;;
51618;SDS011;38518;53.164;5.430;2022-07-01T15:09:21;3.17;;;1.35;;
51618;SDS011;38518;53.164;5.430;2022-07-01T15:11:47;3.28;;;1.30;;
51618;SDS011;38518;53.164;5.430;2022-07-01T15:14:13;4.13;;;1.30;;
51618;SDS011;38518;53.164;5.430;2022-07-01T15:16:39;3.75;;;1.00;;
51618;SDS011;38518;53.164;5.430;2022-07-01T15:19:05;2.58;;;1.00;;
51618;SDS011;38518;53.164;5.430;2022-07-01T15:21:31;3.20;;;1.33;;
51618;SDS011;38518;53.164;5.430;2022-07-01T15:23:57;3.20;;;1.23;;